Catalao, Brazil
Current Conditions -  °F | °C
As of 3:00 PM on Saturday 25 Oct 2014 (Local Time) from SBUL Reporting Station
Thunderstorm Thunderstorm  
Wind Chill: 66°   Ceiling: Unl
Heat Index: 66°   Visibility: 1.8mi
Dew Point: 64°   Wind: 10mph
Humidity: 94%   Direction: 260°W
Pressure: 30.06"   Gusts: NA
Location:  18.18°S, 47.95°W
Report Text: SBUL 251700Z 26009KT 3000 -TSRA SCT006 SCT009 FEW030CB 19/18 Q1018 RERA
Loading
Personal Weather Stations






























Interactive Weather Map
Tropical Storm Tracking
New forecast layout! Learn more

10-Day Weather Forecast

Advertisements
Track Severe Weather on mobile